Time;durP1;ratioP1;P1;durP2;ratioP2;P2;SDS_P1;SDS_P2;PMS_P1;PMS_P2;Temp;Humidity;BMP_temperature;BMP_pressure;BME280_temperature;BME280_humidity;BME280_pressure;Samples;Min_cycle;Max_cycle;Signal;HPM_P1;HPM_P2
2021/03/13 00:03:47;;;;;;;79.07;41.85;;;;;;;2.78;100.00;94663.06;10445364;28;20496;-78
2021/03/13 00:08:47;;;;;;;48.60;25.93;;;;;;;2.79;100.00;94672.66;10445820;28;20025;-78
2021/03/13 00:13:48;;;;;;;53.85;25.67;;;;;;;2.75;100.00;94679.44;10444539;28;20341;-78
2021/03/13 00:18:49;;;;;;;40.90;20.60;;;;;;;2.84;100.00;94680.72;10455429;28;20032;-78
2021/03/13 00:23:49;;;;;;;61.40;31.50;;;;;;;2.65;100.00;94653.47;10485027;28;20297;-77
2021/03/13 00:28:50;;;;;;;41.53;23.07;;;;;;;2.55;100.00;94654.00;10485907;28;20025;-77
2021/03/13 00:33:50;;;;;;;50.80;24.98;;;;;;;2.55;100.00;94648.69;10486231;28;20286;-77
2021/03/13 00:38:51;;;;;;;40.40;23.07;;;;;;;2.68;100.00;94646.88;10485854;28;20063;-77
2021/03/13 00:43:51;;;;;;;43.63;24.40;;;;;;;2.66;100.00;94644.44;10485536;28;20273;-77
2021/03/13 00:48:51;;;;;;;49.23;24.30;;;;;;;2.86;100.00;94652.13;10485657;28;20024;-77
2021/03/13 00:53:52;;;;;;;49.03;27.07;;;;;;;3.01;100.00;94642.94;10486445;28;20309;-77
2021/03/13 00:58:52;;;;;;;50.57;24.70;;;;;;;2.88;100.00;94635.97;10485264;28;20472;-77
2021/03/13 01:03:52;;;;;;;49.27;26.23;;;;;;;2.93;100.00;94628.16;10485870;28;20514;-78
2021/03/13 01:08:53;;;;;;;45.00;23.33;;;;;;;3.02;100.00;94636.59;10484972;28;20279;-77
2021/03/13 01:13:53;;;;;;;58.90;26.87;;;;;;;2.92;100.00;94623.88;10485447;28;20028;-77
2021/03/13 01:18:53;;;;;;;50.30;26.10;;;;;;;3.14;100.00;94613.53;10483566;28;20296;-78
2021/03/13 01:23:54;;;;;;;48.33;25.73;;;;;;;3.20;100.00;94617.09;10485400;28;20269;-77
2021/03/13 01:28:54;;;;;;;50.40;24.80;;;;;;;3.31;100.00;94599.53;10485451;28;20090;-78
2021/03/13 01:33:54;;;;;;;53.08;25.23;;;;;;;3.39;100.00;94609.81;10488765;28;20032;-78
2021/03/13 01:38:55;;;;;;;49.30;25.37;;;;;;;3.25;100.00;94628.66;10493069;28;20024;-77
2021/03/13 01:43:55;;;;;;;51.85;25.58;;;;;;;3.30;100.00;94619.19;10491407;28;20381;-77
2021/03/13 01:48:56;;;;;;;52.37;26.37;;;;;;;3.41;100.00;94613.88;10474957;28;20044;-77
2021/03/13 01:53:56;;;;;;;60.42;29.38;;;;;;;3.49;100.00;94602.09;10451523;28;20839;-78
2021/03/13 01:58:56;;;;;;;58.77;30.33;;;;;;;3.20;100.00;94606.47;10449896;28;20033;-77
2021/03/13 02:03:58;;;;;;;53.93;29.67;;;;;;;2.99;100.00;94600.69;10450705;28;20052;-77
2021/03/13 02:09:05;;;;;;;68.78;32.13;;;;;;;2.77;100.00;94597.75;10450461;28;20944;-78
2021/03/13 02:14:32;;;;;;;58.92;28.73;;;;;;;2.89;100.00;94590.63;10450234;28;20036;-77
2021/03/13 02:19:54;;;;;;;64.35;30.83;;;;;;;2.90;100.00;94602.03;10450178;28;20056;-77
2021/03/13 02:25:16;;;;;;;61.67;29.73;;;;;;;2.93;100.00;94596.31;10449480;28;20039;-78
2021/03/13 02:30:22;;;;;;;42.33;22.73;;;;;;;3.03;100.00;94598.41;10449848;28;20029;-78
2021/03/13 02:35:29;;;;;;;39.17;20.98;;;;;;;2.98;100.00;94592.94;10450325;28;20029;-77
2021/03/13 02:40:31;;;;;;;47.88;22.20;;;;;;;2.89;100.00;94574.69;10449365;28;20056;-77
2021/03/13 02:45:35;;;;;;;39.85;20.35;;;;;;;2.85;100.00;94584.16;10448999;28;20042;-77
2021/03/13 02:50:37;;;;;;;49.47;24.92;;;;;;;2.68;100.00;94567.25;10447392;28;20431;-77
2021/03/13 02:55:40;;;;;;;46.42;23.02;;;;;;;2.58;100.00;94561.72;10447814;28;20031;-77
2021/03/13 03:00:42;;;;;;;43.08;22.45;;;;;;;2.45;100.00;94563.53;10446874;28;20029;-77
2021/03/13 03:05:43;;;;;;;40.15;22.02;;;;;;;2.60;100.00;94568.41;10448510;28;20035;-77
2021/03/13 03:10:45;;;;;;;47.47;23.48;;;;;;;2.76;100.00;94543.06;10447064;28;20110;-77
2021/03/13 03:15:46;;;;;;;42.25;21.65;;;;;;;2.87;100.00;94552.88;10447921;28;20063;-77
2021/03/13 03:20:48;;;;;;;44.38;20.60;;;;;;;2.91;100.00;94546.06;10445486;28;20032;-77
2021/03/13 03:25:53;;;;;;;36.30;21.15;;;;;;;3.02;100.00;94555.09;10445518;28;20060;-77
2021/03/13 03:30:54;;;;;;;34.05;17.15;;;;;;;3.01;100.00;94553.47;10445271;28;20033;-77
2021/03/13 03:35:54;;;;;;;40.35;18.73;;;;;;;3.07;100.00;94551.75;10447176;28;20028;-77
2021/03/13 03:40:55;;;;;;;32.03;16.37;;;;;;;3.13;100.00;94572.06;10450376;28;20422;-77
2021/03/13 03:45:58;;;;;;;29.88;13.32;;;;;;;3.02;100.00;94575.53;10487922;28;20479;-77
2021/03/13 03:50:59;;;;;;;29.80;17.17;;;;;;;2.74;100.00;94580.44;10486244;28;20063;-77
2021/03/13 03:56:02;;;;;;;43.05;22.30;;;;;;;2.60;100.00;94583.53;10486662;28;20063;-77
2021/03/13 04:01:06;;;;;;;75.03;36.67;;;;;;;2.55;100.00;94590.31;10487589;28;20025;-77
2021/03/13 04:06:08;;;;;;;88.82;43.88;;;;;;;2.38;100.00;94586.69;10460809;28;20053;-77
2021/03/13 04:11:20;;;;;;;100.22;48.55;;;;;;;2.26;100.00;94591.97;10446149;28;20037;-76
2021/03/13 04:16:22;;;;;;;105.22;49.83;;;;;;;2.15;100.00;94606.78;10445171;28;20064;-76
2021/03/13 04:21:22;;;;;;;99.10;48.35;;;;;;;2.08;100.00;94603.41;10445740;28;20082;-76
2021/03/13 04:26:24;;;;;;;97.43;48.10;;;;;;;2.06;100.00;94578.94;10445048;28;20825;-77
2021/03/13 04:31:30;;;;;;;102.10;48.80;;;;;;;2.21;100.00;94589.97;10445284;28;20028;-77
2021/03/13 04:36:35;;;;;;;107.57;46.70;;;;;;;2.28;100.00;94583.78;10444956;28;20031;-76
2021/03/13 04:41:36;;;;;;;103.20;50.13;;;;;;;2.12;100.00;94574.59;10454617;28;20383;-77
2021/03/13 04:46:37;;;;;;;99.75;45.95;;;;;;;2.11;100.00;94562.34;10485069;28;20029;-77
2021/03/13 04:51:38;;;;;;;86.50;40.00;;;;;;;1.99;100.00;94572.94;10486167;28;20057;-76
2021/03/13 04:56:40;;;;;;;87.30;41.22;;;;;;;1.96;100.00;94574.19;10484565;28;20028;-76
2021/03/13 05:01:40;;;;;;;84.50;42.60;;;;;;;2.17;100.00;94572.88;10484131;28;20435;-77
2021/03/13 05:06:41;;;;;;;90.03;41.65;;;;;;;2.34;100.00;94566.94;10485793;28;20107;-76
2021/03/13 05:11:41;;;;;;;82.83;40.40;;;;;;;2.45;100.00;94568.81;10493960;28;20378;-78
2021/03/13 05:16:42;;;;;;;83.78;39.92;;;;;;;2.46;100.00;94582.91;10492571;28;20336;-76
2021/03/13 05:21:42;;;;;;;77.53;37.70;;;;;;;2.65;100.00;94586.28;10493793;28;20086;-76
2021/03/13 05:26:42;;;;;;;75.95;35.28;;;;;;;2.86;100.00;94596.41;10488647;28;20278;-76
2021/03/13 05:31:43;;;;;;;74.20;37.53;;;;;;;2.94;100.00;94591.78;10452086;28;20443;-76
2021/03/13 05:36:43;;;;;;;72.07;36.65;;;;;;;3.48;100.00;94605.78;10451319;28;20342;-77
2021/03/13 05:41:46;;;;;;;71.47;40.40;;;;;;;4.21;100.00;94602.78;10451700;28;20100;-77
2021/03/13 05:46:46;;;;;;;90.35;46.55;;;;;;;4.59;100.00;94609.31;10449983;28;20040;-78
2021/03/13 05:51:47;;;;;;;87.95;42.20;;;;;;;4.42;100.00;94604.78;10451604;28;20569;-77
2021/03/13 05:56:47;;;;;;;83.65;41.55;;;;;;;4.23;100.00;94604.16;10450659;28;20036;-78
2021/03/13 06:01:48;;;;;;;88.63;41.73;;;;;;;4.12;100.00;94612.97;10451701;28;20021;-79
2021/03/13 06:06:51;;;;;;;76.38;39.58;;;;;;;3.91;100.00;94617.88;10450354;28;20116;-74
2021/03/13 06:11:52;;;;;;;89.15;42.67;;;;;;;4.11;100.00;94622.78;10449623;28;20139;-74
2021/03/13 06:16:54;;;;;;;78.15;39.42;;;;;;;4.67;100.00;94603.63;10449429;28;20108;-74
2021/03/13 06:21:54;;;;;;;76.63;38.33;;;;;;;5.07;100.00;94631.22;10448741;28;20028;-74
2021/03/13 06:26:56;;;;;;;67.50;35.27;;;;;;;5.62;100.00;94619.81;10486274;28;20028;-75
2021/03/13 06:32:06;;;;;;;68.85;35.53;;;;;;;6.81;100.00;94645.31;10448671;28;20349;-73
2021/03/13 06:37:25;;;;;;;79.90;39.40;;;;;;;7.63;100.00;94632.66;10448833;28;20079;-73
2021/03/13 06:42:29;;;;;;;75.88;39.35;;;;;;;8.64;100.00;94638.00;10448783;28;20378;-73
2021/03/13 06:47:32;;;;;;;76.35;38.95;;;;;;;8.87;96.85;94646.66;10448099;28;20033;-73
2021/03/13 06:52:33;;;;;;;71.10;36.17;;;;;;;8.02;100.00;94650.28;10468801;28;20048;-73
2021/03/13 06:57:33;;;;;;;77.60;38.80;;;;;;;7.34;100.00;94649.00;10488973;28;20059;-74
2021/03/13 07:02:34;;;;;;;76.43;35.93;;;;;;;6.80;100.00;94646.38;10486376;28;20025;-76
2021/03/13 07:07:34;;;;;;;64.33;35.10;;;;;;;6.60;100.00;94650.44;10488501;28;20020;-76
2021/03/13 07:12:41;;;;;;;68.38;32.28;;;;;;;8.29;100.00;94652.84;10488824;28;21120;-75
2021/03/13 07:17:53;;;;;;;63.55;30.08;;;;;;;10.03;85.77;94662.28;10488574;28;20482;-73
2021/03/13 07:22:56;;;;;;;54.60;29.40;;;;;;;10.46;78.72;94661.13;10488161;28;20020;-74
2021/03/13 07:27:59;;;;;;;52.97;26.70;;;;;;;11.17;69.56;94657.28;10488028;28;20372;-69
2021/03/13 07:33:03;;;;;;;59.22;25.83;;;;;;;11.81;64.70;94651.97;10452947;28;20025;-69
2021/03/13 07:38:07;;;;;;;53.63;27.45;;;;;;;11.68;63.80;94653.44;10480278;28;20116;-68
2021/03/13 07:43:11;;;;;;;46.58;23.40;;;;;;;11.89;59.37;94650.53;10460130;28;20029;-68
2021/03/13 07:48:14;;;;;;;42.78;22.27;;;;;;;12.10;59.44;94641.22;10487119;28;20044;-71
2021/03/13 07:53:15;;;;;;;46.85;22.95;;;;;;;13.03;56.51;94634.72;10483082;28;20052;-70
2021/03/13 07:58:16;;;;;;;44.72;21.05;;;;;;;13.07;53.78;94638.44;10472429;28;20143;-71
2021/03/13 08:03:38;;;;;;;38.58;18.98;;;;;;;13.78;51.74;94643.91;10482459;28;20038;-72
2021/03/13 08:08:50;;;;;;;36.97;20.90;;;;;;;13.04;53.89;94635.56;10452320;28;20032;-71
2021/03/13 08:13:51;;;;;;;46.35;22.50;;;;;;;15.02;47.50;94652.44;10482444;28;20060;-72
2021/03/13 08:18:54;;;;;;;44.17;20.17;;;;;;;15.41;47.21;94648.34;10485941;28;20472;-71
2021/03/13 08:23:59;;;;;;;27.13;15.80;;;;;;;14.71;45.93;94647.69;10470354;28;20052;-70
2021/03/13 08:29:02;;;;;;;46.17;21.50;;;;;;;14.95;46.66;94649.38;10486184;28;20111;-70
2021/03/13 08:34:02;;;;;;;22.15;12.45;;;;;;;17.36;40.76;94650.59;10487188;28;20024;-70
2021/03/13 08:39:06;;;;;;;41.45;18.20;;;;;;;18.96;38.80;94637.19;10486999;28;20041;-70
2021/03/13 08:44:11;;;;;;;40.13;18.50;;;;;;;19.43;36.51;94642.50;10482529;28;20425;-70
2021/03/13 08:49:13;;;;;;;37.13;18.77;;;;;;;18.44;36.95;94641.69;10456851;28;20048;-70
2021/03/13 08:54:39;;;;;;;39.05;21.75;;;;;;;17.26;38.53;94653.63;10486804;28;20055;-71
2021/03/13 08:59:42;;;;;;;43.47;20.17;;;;;;;15.00;43.45;94662.75;10480661;28;20040;-70
2021/03/13 09:05:07;;;;;;;48.25;22.17;;;;;;;13.79;47.00;94653.63;10455469;28;20162;-70
2021/03/13 09:10:08;;;;;;;68.60;26.20;;;;;;;13.04;50.12;94674.13;10481359;28;20037;-71
2021/03/13 09:15:09;;;;;;;49.50;26.95;;;;;;;12.40;53.36;94671.63;10484828;28;20036;-70
2021/03/13 09:20:15;;;;;;;58.72;29.95;;;;;;;12.09;56.49;94660.38;10457834;28;20029;-69
2021/03/13 09:25:20;;;;;;;56.78;26.95;;;;;;;12.47;55.19;94669.41;10470592;28;20410;-71
2021/03/13 09:30:26;;;;;;;57.65;28.52;;;;;;;12.56;56.52;94677.66;10485988;28;20112;-69
2021/03/13 09:35:28;;;;;;;57.53;30.17;;;;;;;12.46;60.66;94678.59;10443342;28;20032;-70
2021/03/13 09:40:28;;;;;;;61.63;30.52;;;;;;;11.54;66.11;94693.63;10443744;28;20021;-69
2021/03/13 09:45:29;;;;;;;55.77;30.87;;;;;;;11.50;79.29;94692.59;10443562;28;20032;-71
2021/03/13 09:50:35;;;;;;;57.73;31.87;;;;;;;11.31;88.31;94678.97;10465809;28;20096;-69
2021/03/13 09:55:37;;;;;;;57.47;29.92;;;;;;;11.18;71.29;94685.00;10488275;28;20294;-70
2021/03/13 10:00:42;;;;;;;60.53;32.13;;;;;;;11.39;79.37;94677.59;10492887;28;20040;-70
2021/03/13 10:05:44;;;;;;;60.38;30.80;;;;;;;12.89;67.05;94664.31;10493113;28;20024;-71
2021/03/13 10:10:47;;;;;;;55.97;27.63;;;;;;;15.16;50.76;94663.25;10491332;28;20060;-69
2021/03/13 10:15:47;;;;;;;52.13;26.60;;;;;;;16.72;46.25;94637.50;10491802;28;20399;-71
2021/03/13 10:20:48;;;;;;;56.42;24.63;;;;;;;17.71;44.70;94649.81;10492966;28;20024;-72
2021/03/13 10:26:15;;;;;;;53.70;25.77;;;;;;;18.05;42.65;94661.81;10491430;28;20028;-72
2021/03/13 10:31:19;;;;;;;51.38;25.20;;;;;;;18.74;42.28;94668.16;10490637;28;20025;-69
2021/03/13 10:36:40;;;;;;;44.00;23.42;;;;;;;19.07;40.70;94659.41;10490057;28;20037;-69
2021/03/13 10:41:54;;;;;;;47.80;24.98;;;;;;;21.13;36.92;94640.94;10490719;28;20057;-70
2021/03/13 10:46:54;;;;;;;44.45;23.52;;;;;;;21.34;36.14;94648.22;10490515;28;20461;-71
2021/03/13 10:51:55;;;;;;;47.63;24.20;;;;;;;20.05;37.98;94645.56;10489636;28;20102;-71
2021/03/13 10:57:05;;;;;;;45.22;25.75;;;;;;;18.68;40.23;94648.50;10490810;28;20039;-70
2021/03/13 11:02:05;;;;;;;51.10;23.70;;;;;;;19.12;38.90;94640.94;10472985;28;20029;-71
2021/03/13 11:07:07;;;;;;;43.90;23.77;;;;;;;17.99;41.12;94653.03;10467835;28;20028;-71
2021/03/13 11:12:08;;;;;;;41.10;23.10;;;;;;;17.92;42.03;94650.00;10473483;28;20029;-71
2021/03/13 11:17:08;;;;;;;41.25;21.27;;;;;;;17.62;41.62;94638.16;10459117;28;20025;-71
2021/03/13 11:22:10;;;;;;;41.42;22.08;;;;;;;17.47;44.81;94642.94;10481578;28;20052;-70
2021/03/13 11:27:11;;;;;;;28.70;16.73;;;;;;;18.85;41.70;94636.75;10482207;28;20029;-71
2021/03/13 11:32:13;;;;;;;29.33;15.53;;;;;;;17.87;42.16;94623.72;10484397;28;20032;-70
2021/03/13 11:37:14;;;;;;;30.13;15.88;;;;;;;17.45;43.52;94617.22;10486268;28;20028;-70
2021/03/13 11:42:14;;;;;;;28.60;15.18;;;;;;;15.64;47.44;94626.69;10487172;28;20451;-70
2021/03/13 11:47:15;;;;;;;27.55;15.60;;;;;;;15.76;49.04;94610.69;10485197;28;20458;-70
2021/03/13 11:52:18;;;;;;;28.63;15.63;;;;;;;14.85;51.82;94607.88;10485326;28;20040;-70
2021/03/13 11:57:21;;;;;;;35.78;17.48;;;;;;;14.63;57.14;94611.31;10485147;28;20801;-69
2021/03/13 12:02:22;;;;;;;36.30;16.67;;;;;;;14.68;56.61;94608.50;10479301;28;20109;-71
2021/03/13 12:07:22;;;;;;;34.92;17.13;;;;;;;14.55;57.80;94611.97;10458241;28;20171;-70
2021/03/13 12:12:23;;;;;;;33.70;17.80;;;;;;;14.73;55.51;94604.88;10487212;28;20609;-70
2021/03/13 12:17:23;;;;;;;41.13;17.42;;;;;;;14.86;56.52;94589.72;10486786;28;20016;-70
2021/03/13 12:22:26;;;;;;;32.03;12.63;;;;;;;15.24;57.23;94580.50;10464307;28;20028;-71
2021/03/13 12:27:26;;;;;;;40.85;13.65;;;;;;;15.36;58.13;94581.59;10469867;28;20279;-71
2021/03/13 12:32:26;;;;;;;22.47;12.40;;;;;;;15.04;57.82;94580.69;10459433;28;20024;-70
2021/03/13 12:37:27;;;;;;;22.43;12.33;;;;;;;14.20;58.32;94576.44;10486308;28;20845;-70
2021/03/13 12:42:27;;;;;;;21.00;12.17;;;;;;;14.13;57.38;94568.72;10486520;28;20278;-70
2021/03/13 12:47:27;;;;;;;25.30;12.27;;;;;;;14.14;55.95;94570.31;10486345;28;20024;-71
2021/03/13 12:52:28;;;;;;;24.77;11.70;;;;;;;13.91;56.86;94552.38;10486163;28;20040;-71
2021/03/13 12:57:28;;;;;;;23.95;11.88;;;;;;;13.82;56.12;94544.97;10485993;28;20170;-70
2021/03/13 13:02:29;;;;;;;25.57;12.13;;;;;;;13.61;59.87;94551.84;10486518;28;20417;-71
2021/03/13 13:07:29;;;;;;;21.80;11.87;;;;;;;13.72;57.65;94547.06;10486022;28;20792;-71
2021/03/13 13:12:30;;;;;;;16.10;10.90;;;;;;;13.48;60.31;94543.41;10485975;28;20355;-69
2021/03/13 13:17:30;;;;;;;20.63;10.67;;;;;;;13.52;58.60;94538.19;10453529;28;20021;-68
2021/03/13 13:22:30;;;;;;;21.00;10.03;;;;;;;13.55;57.21;94532.22;10477889;28;20021;-69
2021/03/13 13:27:31;;;;;;;18.27;11.03;;;;;;;13.79;56.88;94533.97;10486588;28;20024;-69
2021/03/13 13:32:32;;;;;;;34.90;10.32;;;;;;;14.00;57.09;94532.47;10489386;28;20052;-69
2021/03/13 13:37:33;;;;;;;20.15;9.30;;;;;;;14.25;54.03;94535.78;10488940;28;20484;-69
2021/03/13 13:42:33;;;;;;;23.83;8.45;;;;;;;14.07;53.99;94534.78;10484344;28;20028;-68
2021/03/13 13:47:34;;;;;;;17.55;9.35;;;;;;;14.03;55.04;94531.09;10489327;28;20495;-70
2021/03/13 13:52:35;;;;;;;16.52;9.07;;;;;;;13.85;56.42;94533.56;10492504;28;20041;-69
2021/03/13 13:57:36;;;;;;;19.75;9.40;;;;;;;13.92;55.43;94521.56;10493606;28;20802;-69
2021/03/13 14:02:37;;;;;;;20.15;9.70;;;;;;;13.80;57.85;94530.97;10492467;28;20032;-69
2021/03/13 14:07:40;;;;;;;23.42;9.20;;;;;;;13.87;57.29;94543.28;10491701;28;20042;-69
2021/03/13 14:12:40;;;;;;;21.33;8.35;;;;;;;13.82;62.83;94542.25;10492287;28;20043;-69
2021/03/13 14:17:41;;;;;;;17.87;6.90;;;;;;;13.98;67.59;94541.97;10492660;28;20028;-69
2021/03/13 14:22:42;;;;;;;9.68;6.32;;;;;;;13.88;67.02;94544.88;10469514;28;20325;-70
2021/03/13 14:27:44;;;;;;;14.98;6.80;;;;;;;13.67;68.66;94550.66;10497585;28;20037;-69
2021/03/13 14:32:46;;;;;;;13.40;6.60;;;;;;;13.59;70.21;94544.03;10467174;28;20059;-67
2021/03/13 14:37:47;;;;;;;15.13;6.53;;;;;;;13.53;71.96;94542.50;10491146;28;20082;-68
2021/03/13 14:42:48;;;;;;;13.35;6.32;;;;;;;13.21;72.92;94532.50;10487125;28;20025;-69
2021/03/13 14:47:51;;;;;;;14.43;6.85;;;;;;;12.99;75.14;94547.38;10490502;28;20064;-69
2021/03/13 14:52:51;;;;;;;17.10;7.25;;;;;;;12.76;78.89;94554.47;10489434;28;20572;-69
2021/03/13 14:57:52;;;;;;;10.63;6.78;;;;;;;12.59;79.95;94558.47;10489646;28;20025;-70
2021/03/13 15:02:53;;;;;;;11.20;6.43;;;;;;;12.47;84.23;94571.56;10491579;28;20024;-69
2021/03/13 15:07:53;;;;;;;13.15;7.30;;;;;;;12.42;83.13;94575.13;10489384;28;20103;-70
2021/03/13 15:12:54;;;;;;;14.77;8.27;;;;;;;12.70;82.15;94577.19;10489776;28;20519;-68
2021/03/13 15:17:54;;;;;;;16.83;8.85;;;;;;;12.65;83.47;94581.56;10448007;28;20036;-71
2021/03/13 15:22:54;;;;;;;13.33;7.10;;;;;;;12.46;84.73;94589.63;10449658;28;20029;-72
2021/03/13 15:27:55;;;;;;;19.23;11.88;;;;;;;12.21;84.37;94590.75;10446917;28;20831;-71
2021/03/13 15:32:55;;;;;;;19.98;10.20;;;;;;;11.97;86.87;94582.63;10447629;28;20036;-70
2021/03/13 15:37:57;;;;;;;11.93;8.03;;;;;;;11.55;91.59;94589.47;10479392;28;20028;-70
2021/03/13 15:42:58;;;;;;;12.68;7.50;;;;;;;11.42;91.13;94589.03;10489097;28;20032;-70
2021/03/13 15:47:58;;;;;;;14.48;7.90;;;;;;;11.22;93.02;94594.56;10487890;28;20403;-70
2021/03/13 15:52:59;;;;;;;13.17;7.90;;;;;;;11.00;96.78;94585.03;10486187;28;20045;-70
2021/03/13 15:57:59;;;;;;;13.47;7.37;;;;;;;10.76;97.54;94584.94;10486268;28;20036;-70
2021/03/13 16:02:59;;;;;;;13.97;8.93;;;;;;;10.55;99.76;94585.03;10487122;28;20259;-70
2021/03/13 16:08:00;;;;;;;16.43;7.60;;;;;;;10.41;100.00;94592.09;10485173;28;20283;-69
2021/03/13 16:13:00;;;;;;;13.37;8.10;;;;;;;10.28;100.00;94580.00;10486166;28;20282;-70
2021/03/13 16:18:01;;;;;;;16.57;7.47;;;;;;;10.20;100.00;94584.09;10459542;28;20032;-70
2021/03/13 16:23:01;;;;;;;16.50;7.70;;;;;;;10.05;100.00;94574.19;10445581;28;20043;-69
2021/03/13 16:28:04;;;;;;;16.65;8.75;;;;;;;9.99;100.00;94577.16;10445774;28;20032;-69
2021/03/13 16:33:04;;;;;;;17.17;7.88;;;;;;;9.73;100.00;94578.03;10444348;28;20028;-69
2021/03/13 16:38:05;;;;;;;19.25;10.52;;;;;;;9.46;100.00;94588.25;10476572;28;20028;-70
2021/03/13 16:43:06;;;;;;;18.35;9.52;;;;;;;9.29;100.00;94596.56;10455849;28;20046;-69
2021/03/13 16:48:06;;;;;;;15.60;8.40;;;;;;;9.23;100.00;94601.94;10463812;28;20040;-68
2021/03/13 16:53:07;;;;;;;18.60;10.73;;;;;;;9.02;100.00;94609.16;10454268;28;20361;-69
2021/03/13 16:58:07;;;;;;;22.50;10.93;;;;;;;8.93;100.00;94604.59;10477909;28;20448;-70
2021/03/13 17:03:08;;;;;;;32.38;15.63;;;;;;;8.76;100.00;94610.19;10480589;28;20140;-71
2021/03/13 17:08:08;;;;;;;45.95;20.92;;;;;;;8.58;100.00;94614.94;10465718;28;20028;-70
2021/03/13 17:13:09;;;;;;;41.65;18.85;;;;;;;8.52;100.00;94614.13;10486019;28;20036;-71
2021/03/13 17:18:09;;;;;;;34.30;17.10;;;;;;;8.40;100.00;94618.91;10483057;28;20036;-69
2021/03/13 17:23:10;;;;;;;38.40;16.67;;;;;;;8.10;100.00;94627.59;10486059;28;20054;-70
2021/03/13 17:28:10;;;;;;;32.83;16.77;;;;;;;7.77;100.00;94622.31;10486182;28;20622;-71
2021/03/13 17:33:11;;;;;;;41.10;17.40;;;;;;;7.56;100.00;94612.53;10485335;28;20116;-70
2021/03/13 17:38:12;;;;;;;30.37;16.10;;;;;;;7.40;100.00;94625.00;10485442;28;20067;-70
2021/03/13 17:43:13;;;;;;;41.53;17.67;;;;;;;7.26;100.00;94620.06;10469375;28;20442;-69
2021/03/13 17:48:14;;;;;;;31.52;17.42;;;;;;;7.17;100.00;94618.91;10443382;28;20052;-70
2021/03/13 17:53:14;;;;;;;27.00;17.80;;;;;;;7.14;100.00;94617.56;10476434;28;20048;-69
2021/03/13 17:58:15;;;;;;;38.85;17.63;;;;;;;7.19;100.00;94611.47;10476270;28;20661;-69
2021/03/13 18:03:15;;;;;;;36.97;19.50;;;;;;;7.27;100.00;94615.53;10476407;28;20024;-70
2021/03/13 18:08:17;;;;;;;35.63;18.42;;;;;;;7.23;100.00;94611.75;10471828;28;20039;-71
2021/03/13 18:13:18;;;;;;;36.08;19.45;;;;;;;7.22;100.00;94610.94;10480927;28;20024;-71
2021/03/13 18:18:18;;;;;;;32.15;16.02;;;;;;;7.17;100.00;94619.75;10485260;28;20491;-71
2021/03/13 18:23:19;;;;;;;37.13;19.30;;;;;;;7.15;100.00;94618.38;10487501;28;20044;-71
2021/03/13 18:28:20;;;;;;;41.83;19.27;;;;;;;7.05;100.00;94626.28;10487832;28;20289;-71
2021/03/13 18:33:20;;;;;;;29.95;17.13;;;;;;;6.97;100.00;94619.56;10490831;28;20111;-70
2021/03/13 18:38:21;;;;;;;41.00;19.40;;;;;;;6.99;100.00;94620.91;10491298;28;20033;-70
2021/03/13 18:43:22;;;;;;;52.20;24.55;;;;;;;6.98;100.00;94615.81;10490509;28;20031;-73
2021/03/13 18:48:22;;;;;;;45.80;21.10;;;;;;;6.87;100.00;94616.78;10489861;28;20039;-73
2021/03/13 18:53:23;;;;;;;39.60;20.60;;;;;;;6.70;100.00;94616.88;10465040;28;20059;-74
2021/03/13 18:58:23;;;;;;;43.72;21.67;;;;;;;6.60;100.00;94623.72;10488725;28;20032;-74
2021/03/13 19:03:23;;;;;;;44.70;20.47;;;;;;;6.58;100.00;94630.38;10488792;28;20449;-73
2021/03/13 19:08:24;;;;;;;38.53;19.92;;;;;;;6.45;100.00;94629.69;10482233;28;20704;-74
2021/03/13 19:13:24;;;;;;;46.43;21.20;;;;;;;6.54;100.00;94621.25;10457118;28;20038;-73
2021/03/13 19:18:24;;;;;;;51.80;19.53;;;;;;;6.39;100.00;94622.69;10489801;28;20119;-74
2021/03/13 19:23:25;;;;;;;34.07;18.23;;;;;;;6.29;100.00;94625.22;10472813;28;20079;-74
2021/03/13 19:28:25;;;;;;;40.13;19.97;;;;;;;6.31;100.00;94626.59;10447927;28;20040;-73
2021/03/13 19:33:26;;;;;;;32.83;17.33;;;;;;;6.23;100.00;94643.03;10462561;28;20302;-74
2021/03/13 19:38:26;;;;;;;40.90;17.60;;;;;;;6.19;100.00;94647.25;10487555;28;20713;-73
2021/03/13 19:43:26;;;;;;;36.92;19.08;;;;;;;6.19;100.00;94644.59;10460143;28;20275;-75
2021/03/13 19:48:27;;;;;;;31.13;17.90;;;;;;;6.28;100.00;94651.13;10463671;28;20036;-73
2021/03/13 19:53:28;;;;;;;45.33;21.42;;;;;;;6.24;100.00;94652.69;10470092;28;20048;-75
2021/03/13 19:58:28;;;;;;;33.97;19.33;;;;;;;6.23;100.00;94655.59;10461252;28;20044;-73
2021/03/13 20:03:30;;;;;;;47.70;19.08;;;;;;;6.13;100.00;94661.59;10445707;28;20275;-73
2021/03/13 20:08:31;;;;;;;41.40;20.73;;;;;;;6.10;100.00;94651.44;10456329;28;20028;-73
2021/03/13 20:13:31;;;;;;;42.40;21.83;;;;;;;6.12;100.00;94652.78;10445514;28;20488;-73
2021/03/13 20:18:32;;;;;;;41.97;21.53;;;;;;;6.01;100.00;94656.38;10445665;28;20044;-72
2021/03/13 20:23:32;;;;;;;27.20;14.38;;;;;;;5.73;100.00;94657.28;10446562;28;20283;-72
2021/03/13 20:28:32;;;;;;;35.07;15.67;;;;;;;5.47;100.00;94659.56;10445411;28;20173;-72
2021/03/13 20:33:33;;;;;;;29.55;13.68;;;;;;;5.34;100.00;94665.22;10467504;28;20036;-73
2021/03/13 20:38:33;;;;;;;31.75;14.52;;;;;;;5.23;100.00;94659.72;10486135;28;20472;-73
2021/03/13 20:43:34;;;;;;;26.90;14.30;;;;;;;5.24;100.00;94645.34;10487161;28;20024;-73
2021/03/13 20:48:34;;;;;;;31.57;16.00;;;;;;;5.32;100.00;94652.13;10486319;28;20055;-73
2021/03/13 20:53:34;;;;;;;28.97;15.40;;;;;;;5.42;100.00;94648.81;10486160;28;20776;-73
2021/03/13 20:58:35;;;;;;;37.13;15.67;;;;;;;5.51;100.00;94655.34;10450597;28;20444;-73
2021/03/13 21:03:35;;;;;;;44.40;15.85;;;;;;;5.58;100.00;94660.50;10443511;28;20285;-72
2021/03/13 21:08:36;;;;;;;42.15;16.67;;;;;;;5.52;100.00;94667.63;10444713;28;20578;-72
2021/03/13 21:13:36;;;;;;;44.87;16.20;;;;;;;5.43;100.00;94658.44;10474165;28;20056;-72
2021/03/13 21:18:36;;;;;;;27.27;14.43;;;;;;;5.41;100.00;94668.53;10485611;28;20095;-71
2021/03/13 21:23:37;;;;;;;38.47;16.07;;;;;;;5.26;100.00;94664.56;10484870;28;20290;-71
2021/03/13 21:28:37;;;;;;;32.00;17.80;;;;;;;4.92;100.00;94669.81;10483959;28;20033;-76
2021/03/13 21:33:38;;;;;;;34.05;17.45;;;;;;;4.89;100.00;94675.63;10486958;28;20040;-76
2021/03/13 21:38:41;;;;;;;42.07;21.13;;;;;;;4.88;100.00;94674.00;10484688;28;20147;-77
2021/03/13 21:43:41;;;;;;;43.90;21.90;;;;;;;4.84;100.00;94674.75;10484384;28;20024;-76
2021/03/13 21:48:41;;;;;;;50.00;25.10;;;;;;;4.76;100.00;94671.41;10483359;28;20711;-76
2021/03/13 21:53:42;;;;;;;56.30;25.42;;;;;;;4.57;100.00;94662.81;10492363;28;20309;-76
2021/03/13 21:58:42;;;;;;;56.22;24.75;;;;;;;4.77;100.00;94666.88;10492424;28;20486;-78
2021/03/13 22:03:43;;;;;;;45.77;22.83;;;;;;;4.86;100.00;94665.47;10492838;28;20443;-78
2021/03/13 22:08:43;;;;;;;40.57;21.83;;;;;;;4.86;100.00;94660.16;10464949;28;20490;-77
2021/03/13 22:13:43;;;;;;;32.13;17.83;;;;;;;4.97;100.00;94650.50;10450363;28;20352;-77
2021/03/13 22:18:44;;;;;;;27.17;15.67;;;;;;;4.98;100.00;94641.44;10450145;28;20041;-77
2021/03/13 22:23:44;;;;;;;21.33;11.52;;;;;;;4.90;100.00;94639.97;10448629;28;20357;-78
2021/03/13 22:28:44;;;;;;;23.03;11.23;;;;;;;4.76;100.00;94626.16;10450233;28;20040;-77
2021/03/13 22:33:45;;;;;;;21.17;9.53;;;;;;;4.66;100.00;94607.34;10447012;28;20285;-77
2021/03/13 22:38:45;;;;;;;19.63;10.35;;;;;;;4.56;100.00;94605.31;10485211;28;20024;-76
2021/03/13 22:43:46;;;;;;;20.43;12.00;;;;;;;4.54;100.00;94599.41;10489448;28;20040;-76
2021/03/13 22:48:46;;;;;;;14.63;10.32;;;;;;;4.61;100.00;94594.75;10489196;28;20032;-77
2021/03/13 22:53:46;;;;;;;15.97;10.07;;;;;;;4.61;100.00;94596.59;10488665;28;20029;-76